sensor_id;sensor_type;location;lat;lon;timestamp;P1;durP1;ratioP1;P2;durP2;ratioP2
19339;SDS011;9804;52.350;6.684;2023-02-28T00:00:10;8.13;;;4.20;;
19339;SDS011;9804;52.350;6.684;2023-02-28T00:02:38;7.03;;;3.60;;
19339;SDS011;9804;52.350;6.684;2023-02-28T00:05:05;10.93;;;3.83;;
19339;SDS011;9804;52.350;6.684;2023-02-28T00:07:31;6.13;;;3.40;;
19339;SDS011;9804;52.350;6.684;2023-02-28T00:09:57;8.13;;;3.90;;
19339;SDS011;9804;52.350;6.684;2023-02-28T00:12:23;6.07;;;3.47;;
19339;SDS011;9804;52.350;6.684;2023-02-28T00:14:49;8.37;;;3.57;;
19339;SDS011;9804;52.350;6.684;2023-02-28T00:17:15;7.00;;;3.50;;
19339;SDS011;9804;52.350;6.684;2023-02-28T00:19:43;6.17;;;3.67;;
19339;SDS011;9804;52.350;6.684;2023-02-28T00:22:08;6.83;;;3.40;;
19339;SDS011;9804;52.350;6.684;2023-02-28T00:24:34;10.50;;;3.87;;
19339;SDS011;9804;52.350;6.684;2023-02-28T00:26:59;7.33;;;4.13;;
19339;SDS011;9804;52.350;6.684;2023-02-28T00:29:25;7.77;;;4.10;;
19339;SDS011;9804;52.350;6.684;2023-02-28T00:31:50;9.07;;;3.50;;
19339;SDS011;9804;52.350;6.684;2023-02-28T00:34:15;10.10;;;3.30;;
19339;SDS011;9804;52.350;6.684;2023-02-28T00:36:41;7.87;;;3.70;;
19339;SDS011;9804;52.350;6.684;2023-02-28T00:39:10;7.77;;;3.83;;
19339;SDS011;9804;52.350;6.684;2023-02-28T00:41:36;8.60;;;4.30;;
19339;SDS011;9804;52.350;6.684;2023-02-28T00:44:01;8.13;;;3.87;;
19339;SDS011;9804;52.350;6.684;2023-02-28T00:46:26;8.03;;;4.10;;
19339;SDS011;9804;52.350;6.684;2023-02-28T00:48:52;10.10;;;3.80;;
19339;SDS011;9804;52.350;6.684;2023-02-28T00:51:17;7.57;;;3.77;;
19339;SDS011;9804;52.350;6.684;2023-02-28T00:53:42;6.30;;;3.30;;
19339;SDS011;9804;52.350;6.684;2023-02-28T00:56:08;7.07;;;3.77;;
19339;SDS011;9804;52.350;6.684;2023-02-28T00:58:33;5.83;;;3.80;;
19339;SDS011;9804;52.350;6.684;2023-02-28T01:00:58;5.73;;;3.43;;
19339;SDS011;9804;52.350;6.684;2023-02-28T01:03:24;7.83;;;4.00;;
19339;SDS011;9804;52.350;6.684;2023-02-28T01:05:50;8.47;;;3.90;;
19339;SDS011;9804;52.350;6.684;2023-02-28T01:08:15;9.23;;;4.13;;
19339;SDS011;9804;52.350;6.684;2023-02-28T01:10:41;7.90;;;3.87;;
19339;SDS011;9804;52.350;6.684;2023-02-28T01:13:07;5.70;;;3.60;;
19339;SDS011;9804;52.350;6.684;2023-02-28T01:15:32;7.40;;;3.60;;
19339;SDS011;9804;52.350;6.684;2023-02-28T01:17:58;9.03;;;3.90;;
19339;SDS011;9804;52.350;6.684;2023-02-28T01:20:23;6.73;;;3.53;;
19339;SDS011;9804;52.350;6.684;2023-02-28T01:22:49;7.60;;;3.53;;
19339;SDS011;9804;52.350;6.684;2023-02-28T01:25:14;6.87;;;3.73;;
19339;SDS011;9804;52.350;6.684;2023-02-28T01:27:39;12.10;;;3.97;;
19339;SDS011;9804;52.350;6.684;2023-02-28T01:30:06;9.07;;;4.13;;
19339;SDS011;9804;52.350;6.684;2023-02-28T01:32:32;8.60;;;3.80;;
19339;SDS011;9804;52.350;6.684;2023-02-28T01:34:58;9.80;;;4.40;;
19339;SDS011;9804;52.350;6.684;2023-02-28T01:37:23;6.93;;;3.97;;
19339;SDS011;9804;52.350;6.684;2023-02-28T01:39:49;5.70;;;3.53;;
19339;SDS011;9804;52.350;6.684;2023-02-28T01:42:14;8.77;;;4.63;;
19339;SDS011;9804;52.350;6.684;2023-02-28T01:44:57;11.07;;;4.03;;
19339;SDS011;9804;52.350;6.684;2023-02-28T01:47:30;9.40;;;3.83;;
19339;SDS011;9804;52.350;6.684;2023-02-28T01:50:04;5.80;;;4.00;;
19339;SDS011;9804;52.350;6.684;2023-02-28T01:52:34;6.27;;;3.60;;
19339;SDS011;9804;52.350;6.684;2023-02-28T01:55:01;6.63;;;3.93;;
19339;SDS011;9804;52.350;6.684;2023-02-28T01:57:30;9.87;;;4.03;;
19339;SDS011;9804;52.350;6.684;2023-02-28T02:00:24;7.43;;;3.90;;
19339;SDS011;9804;52.350;6.684;2023-02-28T02:02:51;7.00;;;3.90;;
19339;SDS011;9804;52.350;6.684;2023-02-28T02:05:21;8.87;;;4.20;;
19339;SDS011;9804;52.350;6.684;2023-02-28T02:07:50;6.70;;;4.00;;
19339;SDS011;9804;52.350;6.684;2023-02-28T02:10:20;5.93;;;3.80;;
19339;SDS011;9804;52.350;6.684;2023-02-28T02:13:01;7.70;;;4.10;;
19339;SDS011;9804;52.350;6.684;2023-02-28T02:15:51;7.10;;;4.07;;
19339;SDS011;9804;52.350;6.684;2023-02-28T02:18:29;9.63;;;4.50;;
19339;SDS011;9804;52.350;6.684;2023-02-28T02:23:51;8.30;;;4.60;;
19339;SDS011;9804;52.350;6.684;2023-02-28T02:27:13;10.03;;;4.47;;
19339;SDS011;9804;52.350;6.684;2023-02-28T02:29:32;9.97;;;4.47;;
19339;SDS011;9804;52.350;6.684;2023-02-28T02:38:27;9.53;;;4.43;;
19339;SDS011;9804;52.350;6.684;2023-02-28T02:41:04;7.67;;;4.00;;
19339;SDS011;9804;52.350;6.684;2023-02-28T02:43:40;8.77;;;4.73;;
19339;SDS011;9804;52.350;6.684;2023-02-28T02:46:19;11.60;;;4.33;;
19339;SDS011;9804;52.350;6.684;2023-02-28T02:48:48;9.63;;;4.37;;
19339;SDS011;9804;52.350;6.684;2023-02-28T02:51:19;8.20;;;4.07;;
19339;SDS011;9804;52.350;6.684;2023-02-28T02:54:10;7.77;;;4.07;;
19339;SDS011;9804;52.350;6.684;2023-02-28T02:56:42;6.27;;;4.30;;
19339;SDS011;9804;52.350;6.684;2023-02-28T02:59:12;6.33;;;4.27;;
19339;SDS011;9804;52.350;6.684;2023-02-28T03:01:45;8.47;;;4.17;;
19339;SDS011;9804;52.350;6.684;2023-02-28T03:04:21;7.50;;;4.57;;
19339;SDS011;9804;52.350;6.684;2023-02-28T03:06:50;7.63;;;4.43;;
19339;SDS011;9804;52.350;6.684;2023-02-28T03:09:20;7.57;;;4.43;;
19339;SDS011;9804;52.350;6.684;2023-02-28T03:11:46;8.17;;;4.23;;
19339;SDS011;9804;52.350;6.684;2023-02-28T03:14:25;8.30;;;4.20;;
19339;SDS011;9804;52.350;6.684;2023-02-28T03:22:27;8.27;;;4.10;;
19339;SDS011;9804;52.350;6.684;2023-02-28T03:30:58;7.40;;;4.70;;
19339;SDS011;9804;52.350;6.684;2023-02-28T03:33:56;7.60;;;4.60;;
19339;SDS011;9804;52.350;6.684;2023-02-28T03:36:23;9.80;;;4.83;;
19339;SDS011;9804;52.350;6.684;2023-02-28T03:38:56;7.23;;;4.50;;
19339;SDS011;9804;52.350;6.684;2023-02-28T03:41:31;7.33;;;4.70;;
19339;SDS011;9804;52.350;6.684;2023-02-28T03:44:06;7.37;;;4.10;;
19339;SDS011;9804;52.350;6.684;2023-02-28T03:46:40;9.57;;;5.30;;
19339;SDS011;9804;52.350;6.684;2023-02-28T03:49:15;9.70;;;4.80;;
19339;SDS011;9804;52.350;6.684;2023-02-28T03:51:44;10.23;;;4.80;;
19339;SDS011;9804;52.350;6.684;2023-02-28T03:54:13;7.93;;;5.30;;
19339;SDS011;9804;52.350;6.684;2023-02-28T03:56:43;6.80;;;4.93;;
19339;SDS011;9804;52.350;6.684;2023-02-28T03:59:32;10.30;;;4.50;;
19339;SDS011;9804;52.350;6.684;2023-02-28T04:02:02;9.23;;;5.00;;
19339;SDS011;9804;52.350;6.684;2023-02-28T04:04:28;9.60;;;4.27;;
19339;SDS011;9804;52.350;6.684;2023-02-28T04:06:53;8.13;;;4.50;;
19339;SDS011;9804;52.350;6.684;2023-02-28T04:09:30;10.03;;;4.83;;
19339;SDS011;9804;52.350;6.684;2023-02-28T04:11:55;8.60;;;5.00;;
19339;SDS011;9804;52.350;6.684;2023-02-28T04:14:21;8.57;;;4.57;;
19339;SDS011;9804;52.350;6.684;2023-02-28T04:16:46;8.23;;;4.80;;
19339;SDS011;9804;52.350;6.684;2023-02-28T04:19:12;9.53;;;4.93;;
19339;SDS011;9804;52.350;6.684;2023-02-28T04:21:47;13.30;;;4.90;;
19339;SDS011;9804;52.350;6.684;2023-02-28T04:24:15;8.93;;;4.97;;
19339;SDS011;9804;52.350;6.684;2023-02-28T04:26:52;9.17;;;4.77;;
19339;SDS011;9804;52.350;6.684;2023-02-28T04:29:20;11.53;;;4.90;;
19339;SDS011;9804;52.350;6.684;2023-02-28T04:31:53;12.67;;;4.97;;
19339;SDS011;9804;52.350;6.684;2023-02-28T04:34:19;9.87;;;4.83;;
19339;SDS011;9804;52.350;6.684;2023-02-28T04:36:46;8.67;;;5.20;;
19339;SDS011;9804;52.350;6.684;2023-02-28T04:39:14;7.90;;;4.73;;
19339;SDS011;9804;52.350;6.684;2023-02-28T04:41:40;13.53;;;5.00;;
19339;SDS011;9804;52.350;6.684;2023-02-28T04:44:05;10.67;;;5.27;;
19339;SDS011;9804;52.350;6.684;2023-02-28T04:46:31;7.57;;;5.07;;
19339;SDS011;9804;52.350;6.684;2023-02-28T04:48:56;9.07;;;5.57;;
19339;SDS011;9804;52.350;6.684;2023-02-28T04:51:22;11.33;;;4.80;;
19339;SDS011;9804;52.350;6.684;2023-02-28T04:53:48;8.80;;;5.40;;
19339;SDS011;9804;52.350;6.684;2023-02-28T04:56:14;8.63;;;5.37;;
19339;SDS011;9804;52.350;6.684;2023-02-28T04:58:41;6.57;;;4.67;;
19339;SDS011;9804;52.350;6.684;2023-02-28T05:01:18;8.77;;;4.63;;
19339;SDS011;9804;52.350;6.684;2023-02-28T05:03:44;9.97;;;4.93;;
19339;SDS011;9804;52.350;6.684;2023-02-28T05:06:09;8.20;;;5.00;;
19339;SDS011;9804;52.350;6.684;2023-02-28T05:08:36;7.60;;;5.20;;
19339;SDS011;9804;52.350;6.684;2023-02-28T05:11:02;9.87;;;5.33;;
19339;SDS011;9804;52.350;6.684;2023-02-28T05:13:28;11.97;;;5.67;;
19339;SDS011;9804;52.350;6.684;2023-02-28T05:15:53;6.43;;;4.13;;
19339;SDS011;9804;52.350;6.684;2023-02-28T05:18:19;8.77;;;5.43;;
19339;SDS011;9804;52.350;6.684;2023-02-28T05:20:45;10.33;;;5.43;;
19339;SDS011;9804;52.350;6.684;2023-02-28T05:23:11;7.43;;;4.50;;
19339;SDS011;9804;52.350;6.684;2023-02-28T05:25:38;8.17;;;4.77;;
19339;SDS011;9804;52.350;6.684;2023-02-28T05:28:03;12.90;;;5.60;;
19339;SDS011;9804;52.350;6.684;2023-02-28T05:30:29;11.40;;;5.40;;
19339;SDS011;9804;52.350;6.684;2023-02-28T05:32:56;8.73;;;5.67;;
19339;SDS011;9804;52.350;6.684;2023-02-28T05:35:22;12.00;;;5.47;;
19339;SDS011;9804;52.350;6.684;2023-02-28T05:37:48;8.87;;;5.63;;
19339;SDS011;9804;52.350;6.684;2023-02-28T05:40:13;8.77;;;5.33;;
19339;SDS011;9804;52.350;6.684;2023-02-28T05:42:39;8.57;;;5.37;;
19339;SDS011;9804;52.350;6.684;2023-02-28T05:45:05;11.07;;;5.53;;
19339;SDS011;9804;52.350;6.684;2023-02-28T05:47:32;9.80;;;5.97;;
19339;SDS011;9804;52.350;6.684;2023-02-28T05:49:57;9.77;;;5.77;;
19339;SDS011;9804;52.350;6.684;2023-02-28T05:52:23;11.37;;;5.90;;
19339;SDS011;9804;52.350;6.684;2023-02-28T05:54:48;9.60;;;6.10;;
19339;SDS011;9804;52.350;6.684;2023-02-28T05:57:13;10.07;;;5.73;;
19339;SDS011;9804;52.350;6.684;2023-02-28T05:59:40;9.47;;;5.20;;
19339;SDS011;9804;52.350;6.684;2023-02-28T06:02:06;8.13;;;5.47;;
19339;SDS011;9804;52.350;6.684;2023-02-28T06:04:36;11.07;;;5.43;;
19339;SDS011;9804;52.350;6.684;2023-02-28T06:07:02;9.80;;;5.60;;
19339;SDS011;9804;52.350;6.684;2023-02-28T06:09:28;8.00;;;5.43;;
19339;SDS011;9804;52.350;6.684;2023-02-28T06:11:54;11.07;;;5.50;;
19339;SDS011;9804;52.350;6.684;2023-02-28T06:14:19;11.57;;;5.83;;
19339;SDS011;9804;52.350;6.684;2023-02-28T06:16:45;12.13;;;6.97;;
19339;SDS011;9804;52.350;6.684;2023-02-28T06:19:11;7.87;;;5.40;;
19339;SDS011;9804;52.350;6.684;2023-02-28T06:21:36;10.57;;;5.90;;
19339;SDS011;9804;52.350;6.684;2023-02-28T06:24:02;7.23;;;4.97;;
19339;SDS011;9804;52.350;6.684;2023-02-28T06:26:28;9.53;;;6.30;;
19339;SDS011;9804;52.350;6.684;2023-02-28T06:28:54;9.23;;;5.93;;
19339;SDS011;9804;52.350;6.684;2023-02-28T06:31:19;10.53;;;6.07;;
19339;SDS011;9804;52.350;6.684;2023-02-28T06:33:45;7.60;;;5.70;;
19339;SDS011;9804;52.350;6.684;2023-02-28T06:36:12;9.40;;;5.87;;
19339;SDS011;9804;52.350;6.684;2023-02-28T06:38:39;12.50;;;6.57;;
19339;SDS011;9804;52.350;6.684;2023-02-28T06:41:05;9.07;;;5.97;;
19339;SDS011;9804;52.350;6.684;2023-02-28T06:43:31;9.47;;;6.50;;
19339;SDS011;9804;52.350;6.684;2023-02-28T06:45:59;11.07;;;5.93;;
19339;SDS011;9804;52.350;6.684;2023-02-28T06:48:26;9.50;;;6.03;;
19339;SDS011;9804;52.350;6.684;2023-02-28T06:50:52;8.87;;;5.93;;
19339;SDS011;9804;52.350;6.684;2023-02-28T06:53:26;9.27;;;5.87;;
19339;SDS011;9804;52.350;6.684;2023-02-28T06:55:51;9.37;;;5.80;;
19339;SDS011;9804;52.350;6.684;2023-02-28T06:58:16;11.03;;;5.80;;
19339;SDS011;9804;52.350;6.684;2023-02-28T07:00:45;7.83;;;5.60;;
19339;SDS011;9804;52.350;6.684;2023-02-28T07:03:11;13.10;;;6.13;;
19339;SDS011;9804;52.350;6.684;2023-02-28T07:05:38;8.03;;;5.83;;
19339;SDS011;9804;52.350;6.684;2023-02-28T07:08:04;9.50;;;5.17;;
19339;SDS011;9804;52.350;6.684;2023-02-28T07:10:31;12.17;;;5.83;;
19339;SDS011;9804;52.350;6.684;2023-02-28T07:12:57;13.17;;;6.33;;
19339;SDS011;9804;52.350;6.684;2023-02-28T07:15:23;10.17;;;5.47;;
19339;SDS011;9804;52.350;6.684;2023-02-28T07:17:48;11.27;;;5.40;;
19339;SDS011;9804;52.350;6.684;2023-02-28T07:20:14;9.77;;;5.10;;
19339;SDS011;9804;52.350;6.684;2023-02-28T07:22:39;9.87;;;5.57;;
19339;SDS011;9804;52.350;6.684;2023-02-28T07:25:05;8.93;;;5.73;;
19339;SDS011;9804;52.350;6.684;2023-02-28T07:27:31;9.10;;;5.57;;
19339;SDS011;9804;52.350;6.684;2023-02-28T07:29:56;8.50;;;5.57;;
19339;SDS011;9804;52.350;6.684;2023-02-28T07:32:22;8.97;;;5.50;;
19339;SDS011;9804;52.350;6.684;2023-02-28T07:34:47;11.30;;;4.87;;
19339;SDS011;9804;52.350;6.684;2023-02-28T07:37:13;8.37;;;4.70;;
19339;SDS011;9804;52.350;6.684;2023-02-28T07:39:39;8.23;;;4.57;;
19339;SDS011;9804;52.350;6.684;2023-02-28T07:42:07;11.00;;;5.07;;
19339;SDS011;9804;52.350;6.684;2023-02-28T07:44:35;5.57;;;4.33;;
19339;SDS011;9804;52.350;6.684;2023-02-28T07:47:05;6.87;;;4.10;;
19339;SDS011;9804;52.350;6.684;2023-02-28T07:49:34;10.40;;;4.50;;
19339;SDS011;9804;52.350;6.684;2023-02-28T07:52:03;7.97;;;4.40;;
19339;SDS011;9804;52.350;6.684;2023-02-28T07:54:30;6.67;;;3.40;;
19339;SDS011;9804;52.350;6.684;2023-02-28T07:56:55;5.80;;;2.70;;
19339;SDS011;9804;52.350;6.684;2023-02-28T07:59:20;6.20;;;3.00;;
19339;SDS011;9804;52.350;6.684;2023-02-28T08:01:46;5.20;;;2.33;;
19339;SDS011;9804;52.350;6.684;2023-02-28T08:04:11;5.67;;;1.90;;
19339;SDS011;9804;52.350;6.684;2023-02-28T08:06:36;4.43;;;2.03;;
19339;SDS011;9804;52.350;6.684;2023-02-28T08:09:02;2.40;;;1.80;;
19339;SDS011;9804;52.350;6.684;2023-02-28T08:11:27;4.53;;;1.87;;
19339;SDS011;9804;52.350;6.684;2023-02-28T08:13:54;2.47;;;1.20;;
19339;SDS011;9804;52.350;6.684;2023-02-28T08:16:19;2.37;;;1.53;;
19339;SDS011;9804;52.350;6.684;2023-02-28T08:18:47;3.07;;;1.50;;
19339;SDS011;9804;52.350;6.684;2023-02-28T08:21:21;3.33;;;1.50;;
19339;SDS011;9804;52.350;6.684;2023-02-28T08:23:47;4.47;;;1.60;;
19339;SDS011;9804;52.350;6.684;2023-02-28T08:26:13;2.50;;;1.60;;
19339;SDS011;9804;52.350;6.684;2023-02-28T08:28:39;4.43;;;1.50;;
19339;SDS011;9804;52.350;6.684;2023-02-28T08:31:11;2.50;;;1.30;;
19339;SDS011;9804;52.350;6.684;2023-02-28T08:33:39;3.07;;;1.40;;
19339;SDS011;9804;52.350;6.684;2023-02-28T08:36:06;1.93;;;1.20;;
19339;SDS011;9804;52.350;6.684;2023-02-28T08:38:33;2.70;;;1.17;;
19339;SDS011;9804;52.350;6.684;2023-02-28T08:41:00;2.47;;;1.40;;
19339;SDS011;9804;52.350;6.684;2023-02-28T08:43:28;2.70;;;1.43;;
19339;SDS011;9804;52.350;6.684;2023-02-28T08:45:54;5.17;;;2.00;;
19339;SDS011;9804;52.350;6.684;2023-02-28T08:48:24;10.13;;;4.50;;
19339;SDS011;9804;52.350;6.684;2023-02-28T08:50:54;11.77;;;5.70;;
19339;SDS011;9804;52.350;6.684;2023-02-28T08:53:24;12.03;;;5.87;;
19339;SDS011;9804;52.350;6.684;2023-02-28T08:55:59;7.53;;;4.10;;
19339;SDS011;9804;52.350;6.684;2023-02-28T08:58:26;1.63;;;1.27;;
19339;SDS011;9804;52.350;6.684;2023-02-28T09:00:52;1.97;;;1.00;;
19339;SDS011;9804;52.350;6.684;2023-02-28T09:03:18;2.20;;;1.10;;
19339;SDS011;9804;52.350;6.684;2023-02-28T09:05:56;2.10;;;1.10;;
19339;SDS011;9804;52.350;6.684;2023-02-28T09:08:24;2.57;;;0.80;;
19339;SDS011;9804;52.350;6.684;2023-02-28T09:10:50;2.13;;;1.17;;
19339;SDS011;9804;52.350;6.684;2023-02-28T09:13:17;2.10;;;0.97;;
19339;SDS011;9804;52.350;6.684;2023-02-28T09:15:42;2.73;;;0.80;;
19339;SDS011;9804;52.350;6.684;2023-02-28T09:18:08;0.77;;;0.73;;
19339;SDS011;9804;52.350;6.684;2023-02-28T09:20:33;1.10;;;0.63;;
19339;SDS011;9804;52.350;6.684;2023-02-28T09:22:59;1.13;;;0.70;;
19339;SDS011;9804;52.350;6.684;2023-02-28T09:25:24;1.23;;;0.70;;
19339;SDS011;9804;52.350;6.684;2023-02-28T09:27:50;0.93;;;0.63;;
19339;SDS011;9804;52.350;6.684;2023-02-28T09:30:15;2.33;;;0.70;;
19339;SDS011;9804;52.350;6.684;2023-02-28T09:32:41;1.70;;;0.70;;
19339;SDS011;9804;52.350;6.684;2023-02-28T09:35:06;1.00;;;0.80;;
19339;SDS011;9804;52.350;6.684;2023-02-28T09:37:38;2.97;;;0.63;;
19339;SDS011;9804;52.350;6.684;2023-02-28T09:40:03;1.63;;;0.73;;
19339;SDS011;9804;52.350;6.684;2023-02-28T09:42:31;0.87;;;0.60;;
19339;SDS011;9804;52.350;6.684;2023-02-28T09:44:58;0.87;;;0.70;;
19339;SDS011;9804;52.350;6.684;2023-02-28T09:47:28;1.37;;;0.83;;
19339;SDS011;9804;52.350;6.684;2023-02-28T09:50:22;3.40;;;1.00;;
19339;SDS011;9804;52.350;6.684;2023-02-28T09:52:53;2.13;;;1.10;;
19339;SDS011;9804;52.350;6.684;2023-02-28T09:55:28;1.20;;;0.70;;
19339;SDS011;9804;52.350;6.684;2023-02-28T09:57:58;2.17;;;0.50;;
19339;SDS011;9804;52.350;6.684;2023-02-28T10:00:30;2.77;;;1.20;;
19339;SDS011;9804;52.350;6.684;2023-02-28T10:08:37;2.87;;;0.90;;
19339;SDS011;9804;52.350;6.684;2023-02-28T10:11:14;1.43;;;0.90;;
19339;SDS011;9804;52.350;6.684;2023-02-28T10:13:56;2.93;;;1.17;;
19339;SDS011;9804;52.350;6.684;2023-02-28T10:19:11;2.77;;;0.90;;
19339;SDS011;9804;52.350;6.684;2023-02-28T10:21:55;2.83;;;0.60;;
19339;SDS011;9804;52.350;6.684;2023-02-28T10:24:43;1.07;;;0.60;;
19339;SDS011;9804;52.350;6.684;2023-02-28T10:29:44;2.77;;;0.60;;
19339;SDS011;9804;52.350;6.684;2023-02-28T10:32:18;2.07;;;0.90;;
19339;SDS011;9804;52.350;6.684;2023-02-28T10:35:10;0.93;;;0.70;;
19339;SDS011;9804;52.350;6.684;2023-02-28T10:37:37;1.33;;;0.60;;
19339;SDS011;9804;52.350;6.684;2023-02-28T10:40:04;1.57;;;0.70;;
19339;SDS011;9804;52.350;6.684;2023-02-28T10:45:52;2.07;;;0.90;;
19339;SDS011;9804;52.350;6.684;2023-02-28T10:53:14;2.87;;;0.90;;
19339;SDS011;9804;52.350;6.684;2023-02-28T10:55:41;2.03;;;0.80;;
19339;SDS011;9804;52.350;6.684;2023-02-28T10:58:20;3.03;;;1.17;;
19339;SDS011;9804;52.350;6.684;2023-02-28T11:00:47;1.60;;;0.80;;
19339;SDS011;9804;52.350;6.684;2023-02-28T11:03:24;1.83;;;0.70;;
19339;SDS011;9804;52.350;6.684;2023-02-28T11:05:58;2.27;;;0.97;;
19339;SDS011;9804;52.350;6.684;2023-02-28T11:08:28;1.70;;;0.87;;
19339;SDS011;9804;52.350;6.684;2023-02-28T11:11:04;1.87;;;1.00;;
19339;SDS011;9804;52.350;6.684;2023-02-28T11:13:35;4.47;;;1.40;;
19339;SDS011;9804;52.350;6.684;2023-02-28T11:16:06;2.00;;;1.10;;
19339;SDS011;9804;52.350;6.684;2023-02-28T11:18:36;3.73;;;1.10;;
19339;SDS011;9804;52.350;6.684;2023-02-28T11:21:04;1.23;;;1.10;;
19339;SDS011;9804;52.350;6.684;2023-02-28T11:23:30;1.43;;;1.10;;
19339;SDS011;9804;52.350;6.684;2023-02-28T11:26:00;3.07;;;1.23;;
19339;SDS011;9804;52.350;6.684;2023-02-28T11:28:30;3.00;;;1.17;;
19339;SDS011;9804;52.350;6.684;2023-02-28T11:31:08;1.37;;;0.90;;
19339;SDS011;9804;52.350;6.684;2023-02-28T11:36:10;1.90;;;1.20;;
19339;SDS011;9804;52.350;6.684;2023-02-28T11:38:41;0.90;;;0.80;;
19339;SDS011;9804;52.350;6.684;2023-02-28T11:41:17;2.23;;;0.90;;
19339;SDS011;9804;52.350;6.684;2023-02-28T11:44:28;3.57;;;0.90;;
19339;SDS011;9804;52.350;6.684;2023-02-28T11:47:24;2.20;;;1.30;;
19339;SDS011;9804;52.350;6.684;2023-02-28T11:49:50;3.67;;;1.20;;
19339;SDS011;9804;52.350;6.684;2023-02-28T11:52:56;2.03;;;1.03;;
19339;SDS011;9804;52.350;6.684;2023-02-28T11:58:09;1.07;;;0.80;;
19339;SDS011;9804;52.350;6.684;2023-02-28T12:00:52;4.10;;;0.93;;
19339;SDS011;9804;52.350;6.684;2023-02-28T12:03:35;2.20;;;0.97;;
19339;SDS011;9804;52.350;6.684;2023-02-28T12:06:31;1.03;;;0.80;;
19339;SDS011;9804;52.350;6.684;2023-02-28T12:11:53;1.20;;;0.80;;
19339;SDS011;9804;52.350;6.684;2023-02-28T12:17:06;2.20;;;0.80;;
19339;SDS011;9804;52.350;6.684;2023-02-28T12:22:55;3.17;;;0.90;;
19339;SDS011;9804;52.350;6.684;2023-02-28T12:25:54;2.70;;;1.07;;
19339;SDS011;9804;52.350;6.684;2023-02-28T12:28:28;2.73;;;0.90;;
19339;SDS011;9804;52.350;6.684;2023-02-28T12:31:00;2.40;;;1.00;;
19339;SDS011;9804;52.350;6.684;2023-02-28T12:33:39;1.33;;;0.83;;
19339;SDS011;9804;52.350;6.684;2023-02-28T12:36:10;1.00;;;0.80;;
19339;SDS011;9804;52.350;6.684;2023-02-28T12:38:44;1.00;;;0.80;;
19339;SDS011;9804;52.350;6.684;2023-02-28T12:41:13;1.43;;;0.80;;
19339;SDS011;9804;52.350;6.684;2023-02-28T12:43:48;1.97;;;0.77;;
19339;SDS011;9804;52.350;6.684;2023-02-28T12:46:22;2.83;;;0.87;;
19339;SDS011;9804;52.350;6.684;2023-02-28T12:48:56;0.90;;;0.70;;
19339;SDS011;9804;52.350;6.684;2023-02-28T12:51:24;2.73;;;0.90;;
19339;SDS011;9804;52.350;6.684;2023-02-28T13:04:57;1.57;;;0.90;;
19339;SDS011;9804;52.350;6.684;2023-02-28T13:10:39;1.83;;;1.20;;
19339;SDS011;9804;52.350;6.684;2023-02-28T13:13:11;2.13;;;0.90;;
19339;SDS011;9804;52.350;6.684;2023-02-28T13:15:40;1.03;;;0.90;;
19339;SDS011;9804;52.350;6.684;2023-02-28T13:18:24;2.40;;;0.90;;
19339;SDS011;9804;52.350;6.684;2023-02-28T13:20:54;1.13;;;0.77;;
19339;SDS011;9804;52.350;6.684;2023-02-28T13:26:04;1.63;;;0.97;;
19339;SDS011;9804;52.350;6.684;2023-02-28T13:31:14;1.80;;;0.93;;
19339;SDS011;9804;52.350;6.684;2023-02-28T13:38:44;1.53;;;1.07;;
19339;SDS011;9804;52.350;6.684;2023-02-28T13:46:32;1.93;;;0.90;;
19339;SDS011;9804;52.350;6.684;2023-02-28T13:49:20;2.47;;;1.10;;
19339;SDS011;9804;52.350;6.684;2023-02-28T13:57:32;1.83;;;1.00;;
19339;SDS011;9804;52.350;6.684;2023-02-28T14:03:00;3.57;;;0.80;;
19339;SDS011;9804;52.350;6.684;2023-02-28T14:05:30;2.63;;;1.17;;
19339;SDS011;9804;52.350;6.684;2023-02-28T14:07:59;1.53;;;0.93;;
19339;SDS011;9804;52.350;6.684;2023-02-28T14:10:48;1.30;;;0.97;;
19339;SDS011;9804;52.350;6.684;2023-02-28T14:15:57;2.60;;;0.97;;
19339;SDS011;9804;52.350;6.684;2023-02-28T14:18:29;2.80;;;0.97;;
19339;SDS011;9804;52.350;6.684;2023-02-28T14:26:53;1.93;;;0.97;;
19339;SDS011;9804;52.350;6.684;2023-02-28T14:37:53;2.30;;;1.13;;
19339;SDS011;9804;52.350;6.684;2023-02-28T14:40:27;3.03;;;1.20;;
19339;SDS011;9804;52.350;6.684;2023-02-28T14:42:56;2.47;;;0.93;;
19339;SDS011;9804;52.350;6.684;2023-02-28T14:45:24;1.40;;;0.80;;
19339;SDS011;9804;52.350;6.684;2023-02-28T14:47:53;2.10;;;0.90;;
19339;SDS011;9804;52.350;6.684;2023-02-28T14:50:20;3.30;;;1.10;;
19339;SDS011;9804;52.350;6.684;2023-02-28T14:52:52;1.37;;;1.00;;
19339;SDS011;9804;52.350;6.684;2023-02-28T14:55:22;1.50;;;0.80;;
19339;SDS011;9804;52.350;6.684;2023-02-28T14:57:52;1.73;;;0.80;;
19339;SDS011;9804;52.350;6.684;2023-02-28T15:00:27;1.30;;;0.90;;
19339;SDS011;9804;52.350;6.684;2023-02-28T15:02:54;1.03;;;0.80;;
19339;SDS011;9804;52.350;6.684;2023-02-28T15:05:26;1.30;;;0.90;;
19339;SDS011;9804;52.350;6.684;2023-02-28T15:08:06;1.57;;;0.90;;
19339;SDS011;9804;52.350;6.684;2023-02-28T15:10:35;1.10;;;0.83;;
19339;SDS011;9804;52.350;6.684;2023-02-28T15:13:02;1.60;;;0.70;;
19339;SDS011;9804;52.350;6.684;2023-02-28T15:15:45;1.33;;;0.90;;
19339;SDS011;9804;52.350;6.684;2023-02-28T15:18:35;1.70;;;1.00;;
19339;SDS011;9804;52.350;6.684;2023-02-28T15:21:13;2.23;;;0.90;;
19339;SDS011;9804;52.350;6.684;2023-02-28T15:23:40;1.80;;;0.97;;
19339;SDS011;9804;52.350;6.684;2023-02-28T15:26:11;1.73;;;1.20;;
19339;SDS011;9804;52.350;6.684;2023-02-28T15:28:41;1.67;;;1.20;;
19339;SDS011;9804;52.350;6.684;2023-02-28T15:31:18;1.63;;;1.23;;
19339;SDS011;9804;52.350;6.684;2023-02-28T15:33:52;3.90;;;0.97;;
19339;SDS011;9804;52.350;6.684;2023-02-28T15:36:24;3.57;;;1.47;;
19339;SDS011;9804;52.350;6.684;2023-02-28T15:38:52;2.67;;;1.00;;
19339;SDS011;9804;52.350;6.684;2023-02-28T15:41:25;1.20;;;0.90;;
19339;SDS011;9804;52.350;6.684;2023-02-28T15:44:14;1.83;;;1.37;;
19339;SDS011;9804;52.350;6.684;2023-02-28T15:46:55;3.10;;;1.13;;
19339;SDS011;9804;52.350;6.684;2023-02-28T15:49:24;1.43;;;0.83;;
19339;SDS011;9804;52.350;6.684;2023-02-28T15:51:51;2.93;;;1.10;;
19339;SDS011;9804;52.350;6.684;2023-02-28T15:54:24;1.33;;;1.10;;
19339;SDS011;9804;52.350;6.684;2023-02-28T15:56:55;1.87;;;1.00;;
19339;SDS011;9804;52.350;6.684;2023-02-28T15:59:29;1.80;;;0.97;;
19339;SDS011;9804;52.350;6.684;2023-02-28T16:07:57;2.30;;;1.10;;
19339;SDS011;9804;52.350;6.684;2023-02-28T16:10:26;1.37;;;1.03;;
19339;SDS011;9804;52.350;6.684;2023-02-28T16:12:56;2.37;;;1.20;;
19339;SDS011;9804;52.350;6.684;2023-02-28T16:17:53;2.00;;;1.20;;
19339;SDS011;9804;52.350;6.684;2023-02-28T16:20:23;1.77;;;1.30;;
19339;SDS011;9804;52.350;6.684;2023-02-28T16:22:53;2.70;;;1.30;;
19339;SDS011;9804;52.350;6.684;2023-02-28T16:25:21;1.60;;;1.17;;
19339;SDS011;9804;52.350;6.684;2023-02-28T16:27:51;3.53;;;1.13;;
19339;SDS011;9804;52.350;6.684;2023-02-28T16:30:23;2.08;;;1.00;;
19339;SDS011;9804;52.350;6.684;2023-02-28T16:32:50;1.97;;;1.10;;
19339;SDS011;9804;52.350;6.684;2023-02-28T16:35:17;2.27;;;1.40;;
19339;SDS011;9804;52.350;6.684;2023-02-28T16:37:43;3.60;;;1.83;;
19339;SDS011;9804;52.350;6.684;2023-02-28T16:40:15;2.47;;;1.77;;
19339;SDS011;9804;52.350;6.684;2023-02-28T16:42:42;3.22;;;2.28;;
19339;SDS011;9804;52.350;6.684;2023-02-28T16:45:14;3.85;;;2.38;;
19339;SDS011;9804;52.350;6.684;2023-02-28T16:47:43;4.43;;;2.13;;
19339;SDS011;9804;52.350;6.684;2023-02-28T16:50:12;3.95;;;2.28;;
19339;SDS011;9804;52.350;6.684;2023-02-28T16:52:43;4.03;;;2.40;;
19339;SDS011;9804;52.350;6.684;2023-02-28T16:55:08;4.78;;;2.28;;
19339;SDS011;9804;52.350;6.684;2023-02-28T16:57:34;3.27;;;2.30;;
19339;SDS011;9804;52.350;6.684;2023-02-28T17:00:00;2.40;;;1.83;;
19339;SDS011;9804;52.350;6.684;2023-02-28T17:02:26;4.03;;;2.00;;
19339;SDS011;9804;52.350;6.684;2023-02-28T17:04:51;3.07;;;1.70;;
19339;SDS011;9804;52.350;6.684;2023-02-28T17:07:17;2.57;;;1.50;;
19339;SDS011;9804;52.350;6.684;2023-02-28T17:09:42;3.27;;;2.07;;
19339;SDS011;9804;52.350;6.684;2023-02-28T17:12:09;2.40;;;1.80;;
19339;SDS011;9804;52.350;6.684;2023-02-28T17:14:36;3.17;;;2.00;;